Time;durP1;ratioP1;P1;durP2;ratioP2;P2;SDS_P1;SDS_P2;PMS_P1;PMS_P2;Temp;Humidity;BMP_temperature;BMP_pressure;BME280_temperature;BME280_humidity;BME280_pressure;Samples;Min_cycle;Max_cycle;Signal;HPM_P1;HPM_P2
2022/05/07 00:01:33;;;;;;;1999.90;999.90;;;17.50;53.90;;;;;;5030893;28;20044;-79
2022/05/07 00:03:59;;;;;;;1999.90;999.90;;;17.50;53.90;;;;;;5024529;28;20036;-79
2022/05/07 00:06:25;;;;;;;1999.90;999.90;;;17.50;53.90;;;;;;5031260;28;20025;-79
2022/05/07 00:08:51;;;;;;;1999.90;999.90;;;17.50;53.90;;;;;;5029371;28;20414;-79
2022/05/07 00:11:20;;;;;;;1999.90;999.90;;;17.50;53.90;;;;;;5027912;28;20041;-79
2022/05/07 00:13:48;;;;;;;1999.90;999.90;;;17.40;53.90;;;;;;5032305;28;20029;-79
2022/05/07 00:18:58;;;;;;;1999.90;999.90;;;17.30;54.00;;;;;;5028399;28;20082;-79
2022/05/07 00:21:24;;;;;;;1999.90;999.90;;;17.20;54.00;;;;;;5035036;28;20040;-78
2022/05/07 00:23:50;;;;;;;1999.90;999.90;;;17.10;54.10;;;;;;5019283;28;20048;-78
2022/05/07 00:26:17;;;;;;;1999.90;999.90;;;17.10;54.10;;;;;;5037313;28;20029;-79
2022/05/07 00:28:44;;;;;;;1999.90;999.90;;;17.10;54.20;;;;;;5029141;28;20044;-79
2022/05/07 00:31:11;;;;;;;1999.90;999.90;;;17.10;54.30;;;;;;5025265;28;20044;-78
2022/05/07 00:33:37;;;;;;;1999.90;999.90;;;17.10;54.30;;;;;;5030643;28;20393;-78
2022/05/07 00:36:03;;;;;;;1999.90;999.90;;;17.00;54.30;;;;;;5036196;28;20041;-78
2022/05/07 00:38:29;;;;;;;1999.90;999.90;;;17.00;54.20;;;;;;5029037;28;20049;-78
2022/05/07 00:40:56;;;;;;;1999.90;999.90;;;17.00;54.30;;;;;;5012974;28;20037;-78
2022/05/07 00:43:22;;;;;;;1999.90;999.90;;;16.90;54.20;;;;;;5025445;28;20044;-78
2022/05/07 00:45:48;;;;;;;1999.90;999.90;;;17.00;54.30;;;;;;5028040;28;20052;-78
2022/05/07 00:48:14;;;;;;;1999.90;999.90;;;16.90;54.40;;;;;;5019135;28;20040;-78
2022/05/07 00:53:25;;;;;;;1999.90;999.90;;;16.80;54.60;;;;;;5021884;28;20034;-78
2022/05/07 00:55:52;;;;;;;1999.90;999.90;;;16.70;54.50;;;;;;5015876;28;20037;-78
2022/05/07 00:58:19;;;;;;;1999.90;999.90;;;16.70;54.60;;;;;;5031527;28;20185;-78
2022/05/07 01:00:45;;;;;;;1999.90;999.90;;;16.70;54.70;;;;;;5029396;28;20434;-78
2022/05/07 01:03:11;;;;;;;1999.90;999.90;;;16.60;54.70;;;;;;5018995;28;20038;-78
2022/05/07 01:05:39;;;;;;;1999.90;999.90;;;16.60;54.70;;;;;;5030488;28;20038;-78
2022/05/07 01:08:09;;;;;;;1999.90;999.90;;;16.60;54.70;;;;;;5028285;28;20034;-78
2022/05/07 01:10:35;;;;;;;1999.90;999.90;;;16.70;54.70;;;;;;5031967;28;20406;-78
2022/05/07 01:13:01;;;;;;;1999.90;999.90;;;16.70;54.70;;;;;;5025179;28;20033;-78
2022/05/07 01:15:27;;;;;;;1999.90;999.90;;;16.70;54.70;;;;;;5011269;28;20038;-78
2022/05/07 01:17:53;;;;;;;1999.90;999.90;;;16.70;54.80;;;;;;5019066;28;20049;-78
2022/05/07 01:20:20;;;;;;;1999.90;999.90;;;16.60;54.80;;;;;;5028402;28;20018;-78
2022/05/07 01:22:46;;;;;;;1999.90;999.90;;;16.70;54.90;;;;;;5025704;28;20033;-78
2022/05/07 01:25:12;;;;;;;1999.90;999.90;;;16.70;54.90;;;;;;5015882;28;20041;-78
2022/05/07 01:27:38;;;;;;;1999.90;999.90;;;16.70;54.90;;;;;;5027413;28;20494;-78
2022/05/07 01:30:05;;;;;;;1999.90;999.90;;;16.70;54.90;;;;;;5030060;28;20037;-78
2022/05/07 01:32:31;;;;;;;1999.90;999.90;;;16.70;54.90;;;;;;5033359;28;20133;-78
2022/05/07 01:34:57;;;;;;;1999.90;999.90;;;16.70;55.00;;;;;;5028507;28;20040;-78
2022/05/07 01:37:24;;;;;;;1999.90;999.90;;;16.60;55.00;;;;;;5033784;28;20037;-78
2022/05/07 01:39:50;;;;;;;1999.90;999.90;;;16.60;55.00;;;;;;5028786;28;20050;-79
2022/05/07 01:42:16;;;;;;;1999.90;999.90;;;16.60;55.10;;;;;;5029167;28;20033;-78
2022/05/07 01:44:42;;;;;;;1999.90;999.90;;;16.60;55.20;;;;;;5030097;28;20045;-78
2022/05/07 01:49:53;;;;;;;1999.90;999.90;;;16.50;55.20;;;;;;5041123;28;20037;-78
2022/05/07 01:52:19;;;;;;;1999.90;999.90;;;16.50;55.30;;;;;;5032333;28;20033;-79
2022/05/07 01:54:45;;;;;;;1999.90;999.90;;;16.40;55.30;;;;;;5028221;28;20072;-78
2022/05/07 01:57:11;;;;;;;1999.90;999.90;;;16.40;55.40;;;;;;5033911;28;20490;-79
2022/05/07 01:59:37;;;;;;;1999.90;999.90;;;16.40;55.50;;;;;;5036690;28;20036;-79
2022/05/07 02:02:04;;;;;;;1999.90;999.90;;;16.40;55.50;;;;;;5034170;28;20052;-79
2022/05/07 02:04:30;;;;;;;1999.90;999.90;;;16.30;55.50;;;;;;5026111;28;20030;-79
2022/05/07 02:06:56;;;;;;;1999.90;999.90;;;16.30;55.70;;;;;;5027613;28;20033;-79
2022/05/07 02:09:22;;;;;;;1999.90;999.90;;;16.20;55.70;;;;;;5032931;28;20667;-79
2022/05/07 02:11:48;;;;;;;1999.90;999.90;;;16.10;55.80;;;;;;5015058;28;20029;-79
2022/05/07 02:14:14;;;;;;;1999.90;999.90;;;16.00;56.00;;;;;;5025567;28;20108;-79
2022/05/07 02:16:40;;;;;;;1999.90;999.90;;;15.90;56.20;;;;;;5026179;28;20058;-79
2022/05/07 02:19:06;;;;;;;1999.90;999.90;;;15.80;56.30;;;;;;5032434;28;20049;-79
2022/05/07 02:21:32;;;;;;;1999.90;999.90;;;15.70;56.60;;;;;;5013455;28;20414;-79
2022/05/07 02:23:59;;;;;;;1999.90;999.90;;;15.50;56.70;;;;;;5036584;28;20032;-79
2022/05/07 02:26:25;;;;;;;1999.90;999.90;;;15.40;56.90;;;;;;5027070;28;20216;-78
2022/05/07 02:28:51;;;;;;;1999.90;999.90;;;15.30;57.00;;;;;;5015927;28;20394;-78
2022/05/07 02:31:17;;;;;;;1999.90;999.90;;;15.30;57.10;;;;;;5030540;28;20044;-78
2022/05/07 02:33:43;;;;;;;1999.90;999.90;;;15.20;57.20;;;;;;5027910;28;20566;-78
2022/05/07 02:36:09;;;;;;;1999.90;999.90;;;15.20;57.30;;;;;;5029535;28;20040;-78
2022/05/07 02:38:38;;;;;;;1999.90;999.90;;;15.10;57.40;;;;;;5016703;28;20049;-78
2022/05/07 02:43:49;;;;;;;1999.90;999.90;;;15.00;57.60;;;;;;5036014;28;20029;-78
2022/05/07 02:46:15;;;;;;;1999.90;999.90;;;14.90;57.70;;;;;;5025135;28;20034;-78
2022/05/07 02:48:44;;;;;;;1999.90;999.90;;;14.90;57.80;;;;;;5029072;28;20037;-78
2022/05/07 02:51:11;;;;;;;1999.90;999.90;;;14.80;57.80;;;;;;5015656;28;20503;-78
2022/05/07 02:53:37;;;;;;;1999.90;999.90;;;14.80;58.00;;;;;;5028571;28;20033;-78
2022/05/07 02:56:03;;;;;;;1999.90;999.90;;;14.70;58.10;;;;;;5015055;28;20372;-78
2022/05/07 02:58:30;;;;;;;1999.90;999.90;;;14.70;58.20;;;;;;5033450;28;20060;-78
2022/05/07 03:00:57;;;;;;;1999.90;999.90;;;14.70;58.20;;;;;;5024500;28;20049;-78
2022/05/07 03:03:23;;;;;;;1999.90;999.90;;;14.70;58.10;;;;;;5033667;28;20032;-78
2022/05/07 03:05:49;;;;;;;1999.90;999.90;;;14.70;58.20;;;;;;5013005;28;20038;-79
2022/05/07 03:08:15;;;;;;;1999.90;999.90;;;14.60;58.20;;;;;;5034929;28;20213;-78
2022/05/07 03:10:41;;;;;;;1999.90;999.90;;;14.60;58.30;;;;;;5034922;28;20403;-79
2022/05/07 03:13:07;;;;;;;1999.90;999.90;;;14.50;58.40;;;;;;5025710;28;20038;-78
2022/05/07 03:15:33;;;;;;;1999.90;999.90;;;14.50;58.50;;;;;;5026423;28;20045;-78
2022/05/07 03:17:59;;;;;;;1999.90;999.90;;;14.40;58.60;;;;;;5030240;28;20061;-79
2022/05/07 03:20:25;;;;;;;1999.90;999.90;;;14.40;58.70;;;;;;5025556;28;20048;-78
2022/05/07 03:22:52;;;;;;;1999.90;999.90;;;14.40;58.70;;;;;;5011053;28;20502;-78
2022/05/07 03:25:18;;;;;;;1999.90;999.90;;;14.40;58.70;;;;;;5026948;28;20045;-78
2022/05/07 03:27:44;;;;;;;1999.90;999.90;;;14.40;58.70;;;;;;5026816;28;20034;-78
2022/05/07 03:30:10;;;;;;;1999.90;999.90;;;14.40;58.70;;;;;;5022651;28;20029;-78
2022/05/07 03:32:37;;;;;;;1999.90;999.90;;;14.40;58.70;;;;;;5032607;28;20052;-78
2022/05/07 03:35:03;;;;;;;1999.90;999.90;;;14.40;58.70;;;;;;5032070;28;20036;-78
2022/05/07 03:37:29;;;;;;;1999.90;999.90;;;14.40;58.70;;;;;;5036860;28;20402;-78
2022/05/07 03:39:55;;;;;;;1999.90;999.90;;;14.40;58.70;;;;;;5015925;28;20029;-78
2022/05/07 03:42:21;;;;;;;1999.90;999.90;;;14.40;58.70;;;;;;5027182;28;20037;-78
2022/05/07 03:44:47;;;;;;;1999.90;999.90;;;14.40;58.70;;;;;;5031389;28;20501;-78
2022/05/07 03:47:13;;;;;;;1999.90;999.90;;;14.40;58.70;;;;;;5030952;28;20052;-78
2022/05/07 03:49:39;;;;;;;1999.90;999.90;;;14.40;58.70;;;;;;5035506;28;20033;-79
2022/05/07 03:54:50;;;;;;;1999.90;999.90;;;14.40;58.80;;;;;;5010480;28;20034;-79
2022/05/07 03:57:17;;;;;;;1999.90;999.90;;;14.40;58.80;;;;;;5027911;28;20025;-77
2022/05/07 03:59:43;;;;;;;1999.90;999.90;;;14.40;58.80;;;;;;5025256;28;20033;-77
2022/05/07 04:02:09;;;;;;;1999.90;999.90;;;14.50;58.80;;;;;;5025260;28;20044;-77
2022/05/07 04:04:35;;;;;;;1999.90;999.90;;;14.50;58.80;;;;;;5026584;28;20064;-79
2022/05/07 04:07:02;;;;;;;1999.90;999.90;;;14.50;58.80;;;;;;5004442;28;20379;-78
2022/05/07 04:09:28;;;;;;;1999.90;999.90;;;14.40;58.90;;;;;;5029802;28;20470;-77
2022/05/07 04:11:54;;;;;;;1999.90;999.90;;;14.40;58.90;;;;;;5014597;28;20033;-77
2022/05/07 04:14:20;;;;;;;1999.90;999.90;;;14.40;58.90;;;;;;5029333;28;20208;-77
2022/05/07 04:16:47;;;;;;;1999.90;999.90;;;14.40;58.90;;;;;;5025713;28;20064;-78
2022/05/07 04:19:13;;;;;;;1999.90;999.90;;;14.40;59.10;;;;;;5026392;28;20033;-78
2022/05/07 04:21:39;;;;;;;1999.90;999.90;;;14.40;59.10;;;;;;5019483;28;20029;-78
2022/05/07 04:24:08;;;;;;;1999.90;999.90;;;14.40;59.20;;;;;;5015312;28;20040;-78
2022/05/07 04:26:34;;;;;;;1999.90;999.90;;;14.40;59.20;;;;;;5029707;28;20033;-78
2022/05/07 04:29:00;;;;;;;1999.90;999.90;;;14.30;59.10;;;;;;5025996;28;20046;-77
2022/05/07 04:31:26;;;;;;;1999.90;999.90;;;14.40;59.20;;;;;;5022510;28;20038;-78
2022/05/07 04:33:52;;;;;;;1999.90;999.90;;;14.40;59.20;;;;;;5019578;28;20034;-76
2022/05/07 04:36:19;;;;;;;1999.90;999.90;;;14.40;59.20;;;;;;5021704;28;20034;-75
2022/05/07 04:38:45;;;;;;;1999.90;999.90;;;14.50;59.10;;;;;;5023399;28;20037;-77
2022/05/07 04:41:11;;;;;;;1999.90;999.90;;;14.50;59.10;;;;;;5013357;28;20038;-75
2022/05/07 04:43:37;;;;;;;1999.90;999.90;;;14.50;59.20;;;;;;5024925;28;20390;-76
2022/05/07 04:46:03;;;;;;;1999.90;999.90;;;14.50;59.10;;;;;;5022242;28;20042;-76
2022/05/07 04:48:29;;;;;;;1999.90;999.90;;;14.60;59.20;;;;;;5021563;28;20063;-75
2022/05/07 04:50:55;;;;;;;1999.90;999.90;;;14.60;59.20;;;;;;5013847;28;20034;-77
2022/05/07 04:53:21;;;;;;;1999.90;999.90;;;14.60;59.20;;;;;;5025701;28;20113;-74
2022/05/07 04:55:47;;;;;;;1999.90;999.90;;;14.60;59.20;;;;;;5006293;28;20521;-74
2022/05/07 04:58:13;;;;;;;1999.90;999.90;;;14.60;59.20;;;;;;5007969;28;20053;-75
2022/05/07 05:00:40;;;;;;;1999.90;999.90;;;14.60;59.30;;;;;;5026387;28;20600;-75
2022/05/07 05:03:07;;;;;;;1999.90;999.90;;;14.50;59.40;;;;;;5030845;28;20033;-77
2022/05/07 05:05:33;;;;;;;1999.90;999.90;;;14.50;59.50;;;;;;5029542;28;20045;-76
2022/05/07 05:07:59;;;;;;;1999.90;999.90;;;14.40;59.60;;;;;;5034032;28;20029;-76
2022/05/07 05:10:26;;;;;;;1999.90;999.90;;;14.30;59.70;;;;;;5026441;28;20040;-76
2022/05/07 05:12:52;;;;;;;1999.90;999.90;;;14.30;59.70;;;;;;5026357;28;20021;-77
2022/05/07 05:15:19;;;;;;;1999.90;999.90;;;14.30;59.70;;;;;;5025815;28;20037;-76
2022/05/07 05:17:46;;;;;;;1999.90;999.90;;;14.30;59.70;;;;;;5013999;28;20502;-78
2022/05/07 05:20:13;;;;;;;1999.90;999.90;;;14.30;59.80;;;;;;5025838;28;20037;-80
2022/05/07 05:22:47;;;;;;;1999.90;999.90;;;14.30;59.70;;;;;;5014151;28;20045;-76
2022/05/07 05:25:14;;;;;;;1999.90;999.90;;;14.30;59.70;;;;;;5034499;28;20580;-76
2022/05/07 05:27:40;;;;;;;1999.90;999.90;;;14.50;59.70;;;;;;5030019;28;20187;-76
2022/05/07 05:30:07;;;;;;;1999.90;999.90;;;14.70;59.50;;;;;;5026534;28;20041;-79
2022/05/07 05:32:33;;;;;;;1999.90;999.90;;;14.90;59.20;;;;;;5038446;28;20402;-78
2022/05/07 05:34:59;;;;;;;1999.90;999.90;;;15.10;59.10;;;;;;5039909;28;20041;-81
2022/05/07 05:37:25;;;;;;;1999.90;999.90;;;15.30;58.80;;;;;;4993119;28;20048;-80
2022/05/07 05:39:51;;;;;;;1999.90;999.90;;;15.50;58.70;;;;;;5026138;28;20513;-84
2022/05/07 05:42:17;;;;;;;1999.90;999.90;;;15.60;58.50;;;;;;5017517;28;20053;-79
2022/05/07 05:44:43;;;;;;;1999.90;999.90;;;15.70;58.40;;;;;;5040101;28;20049;-82
2022/05/07 05:47:10;;;;;;;1999.90;999.90;;;15.70;58.50;;;;;;5031829;28;20037;-79
2022/05/07 05:49:36;;;;;;;1999.90;999.90;;;15.70;58.60;;;;;;5032475;28;20319;-78
2022/05/07 05:52:06;;;;;;;1999.90;999.90;;;15.60;58.60;;;;;;5029125;28;20033;-78
2022/05/07 05:54:32;;;;;;;1999.90;999.90;;;15.60;58.80;;;;;;5013698;28;20041;-80
2022/05/07 05:56:59;;;;;;;1999.90;999.90;;;15.50;58.90;;;;;;5027703;28;20485;-79
2022/05/07 05:59:25;;;;;;;1999.90;999.90;;;15.60;59.10;;;;;;5018839;28;20056;-82
2022/05/07 06:01:51;;;;;;;1999.90;999.90;;;15.60;59.00;;;;;;5025588;28;20040;-81
2022/05/07 06:04:18;;;;;;;1999.90;999.90;;;15.60;59.00;;;;;;5027748;28;20032;-86
2022/05/07 06:06:44;;;;;;;1999.90;999.90;;;15.60;59.10;;;;;;5024317;28;20394;-82
2022/05/07 06:09:10;;;;;;;1999.90;999.90;;;15.70;59.00;;;;;;5010120;28;20037;-81
2022/05/07 06:11:36;;;;;;;1999.90;999.90;;;15.80;58.90;;;;;;5026030;28;20041;-79
2022/05/07 06:14:02;;;;;;;1999.90;999.90;;;15.90;58.80;;;;;;5028651;28;20030;-80
2022/05/07 06:16:29;;;;;;;1999.90;999.90;;;16.00;58.70;;;;;;5028060;28;20382;-80
2022/05/07 06:18:55;;;;;;;1999.90;999.90;;;16.10;58.60;;;;;;5010329;28;20053;-81
2022/05/07 06:21:22;;;;;;;1999.90;999.90;;;16.10;58.60;;;;;;5039362;28;20080;-81
2022/05/07 06:23:48;;;;;;;1999.90;999.90;;;16.10;58.70;;;;;;5042935;28;20052;-80
2022/05/07 06:29:01;;;;;;;1999.90;999.90;;;16.00;58.80;;;;;;5028317;28;20025;-78
2022/05/07 06:31:30;;;;;;;1999.90;999.90;;;15.90;58.90;;;;;;5029034;28;20076;-82
2022/05/07 06:33:56;;;;;;;1999.90;999.90;;;15.90;58.90;;;;;;5013955;28;20057;-82
2022/05/07 06:36:22;;;;;;;1999.90;999.90;;;15.80;59.00;;;;;;5031341;28;20286;-82
2022/05/07 06:38:48;;;;;;;1999.90;999.90;;;15.90;59.10;;;;;;5040557;28;20405;-82
2022/05/07 06:41:14;;;;;;;1999.90;999.90;;;16.00;59.00;;;;;;5029979;28;20033;-78
2022/05/07 06:43:40;;;;;;;1999.90;999.90;;;16.00;58.90;;;;;;5031610;28;20033;-78
2022/05/07 06:46:06;;;;;;;1999.90;999.90;;;16.10;58.80;;;;;;5029829;28;20064;-78
2022/05/07 06:48:32;;;;;;;1999.90;999.90;;;16.20;58.80;;;;;;5030905;28;20030;-79
2022/05/07 06:50:58;;;;;;;1999.90;999.90;;;16.30;58.60;;;;;;5032548;28;20018;-78
2022/05/07 06:53:25;;;;;;;1999.90;999.90;;;16.40;58.50;;;;;;5033500;28;20041;-82
2022/05/07 06:55:58;;;;;;;1999.90;999.90;;;16.60;58.30;;;;;;5025264;28;20029;-82
2022/05/07 06:58:30;;;;;;;1999.90;999.90;;;16.80;58.10;;;;;;5028761;28;20374;-78
2022/05/07 07:00:57;;;;;;;1999.90;999.90;;;17.00;57.90;;;;;;5026678;28;20060;-78
2022/05/07 07:03:24;;;;;;;1999.90;999.90;;;17.20;57.70;;;;;;5022906;28;20114;-78
2022/05/07 07:05:50;;;;;;;1999.90;999.90;;;17.50;57.40;;;;;;5025907;28;20029;-82
2022/05/07 07:08:16;;;;;;;1999.90;999.90;;;17.70;57.20;;;;;;5028679;28;20042;-78
2022/05/07 07:10:43;;;;;;;1999.90;999.90;;;17.70;57.10;;;;;;5012315;28;20398;-78
2022/05/07 07:13:09;;;;;;;1999.90;999.90;;;17.80;57.20;;;;;;5018911;28;20033;-78
2022/05/07 07:15:41;;;;;;;1999.90;999.90;;;17.70;57.20;;;;;;5010932;28;20034;-78
2022/05/07 07:18:11;;;;;;;1999.90;999.90;;;17.70;57.30;;;;;;4993357;28;20045;-78
2022/05/07 07:20:41;;;;;;;1999.90;999.90;;;17.80;57.30;;;;;;5026158;28;20048;-78
2022/05/07 07:23:11;;;;;;;1999.90;999.90;;;17.90;57.30;;;;;;5014661;28;20021;-78
2022/05/07 07:25:46;;;;;;;1999.90;999.90;;;18.10;57.20;;;;;;5030127;28;20033;-78
2022/05/07 07:28:12;;;;;;;1999.90;999.90;;;18.30;56.90;;;;;;5006306;28;20041;-84
2022/05/07 07:30:38;;;;;;;1999.90;999.90;;;18.50;56.70;;;;;;5042315;28;20045;-78
2022/05/07 07:33:05;;;;;;;1999.90;999.90;;;18.70;56.50;;;;;;5029347;28;20029;-78
2022/05/07 07:35:31;;;;;;;1999.90;999.90;;;18.80;56.30;;;;;;5027070;28;20419;-79
2022/05/07 07:37:57;;;;;;;1999.90;999.90;;;18.90;56.20;;;;;;5026462;28;20048;-79
2022/05/07 07:40:24;;;;;;;1999.90;999.90;;;18.90;56.20;;;;;;5026391;28;20509;-79
2022/05/07 07:42:50;;;;;;;1999.90;999.90;;;19.10;56.10;;;;;;5026105;28;20040;-79
2022/05/07 07:48:02;;;;;;;1999.90;999.90;;;19.50;55.70;;;;;;5036280;28;20398;-80
2022/05/07 07:50:31;;;;;;;1999.90;999.90;;;19.70;55.40;;;;;;5032470;28;20032;-81
2022/05/07 07:52:59;;;;;;;1999.90;999.90;;;19.80;55.30;;;;;;5022789;28;20013;-88
2022/05/07 07:55:25;;;;;;;1999.90;999.90;;;19.80;55.20;;;;;;5024734;28;20032;-87
2022/05/07 07:57:55;;;;;;;1999.90;999.90;;;19.80;55.20;;;;;;4993158;28;20482;-85
2022/05/07 08:00:21;;;;;;;1999.90;999.90;;;19.80;55.30;;;;;;5019693;28;20052;-81
2022/05/07 08:02:55;;;;;;;1999.90;999.90;;;19.50;55.50;;;;;;5021824;28;20463;-81
2022/05/07 08:05:26;;;;;;;1999.90;999.90;;;19.40;55.90;;;;;;4992315;28;20045;-83
2022/05/07 08:13:21;;;;;;;1999.90;999.90;;;20.00;55.10;;;;;;5042660;28;20033;-86
2022/05/07 08:15:48;;;;;;;1999.90;999.90;;;20.10;54.90;;;;;;5008245;28;23893;-88
2022/05/07 08:18:15;;;;;;;1999.90;999.90;;;20.20;54.90;;;;;;5023958;28;20395;-86
2022/05/07 08:20:41;;;;;;;1999.90;999.90;;;20.30;54.80;;;;;;5027799;28;20062;-88
2022/05/07 08:23:10;;;;;;;1999.90;999.90;;;20.50;54.60;;;;;;5011403;28;20038;-89
2022/05/07 08:25:37;;;;;;;1999.90;999.90;;;20.70;54.30;;;;;;5010732;28;20466;-80
2022/05/07 08:28:03;;;;;;;1999.90;999.90;;;20.70;54.20;;;;;;5008982;28;20446;-85
2022/05/07 08:30:30;;;;;;;1999.90;999.90;;;20.70;54.40;;;;;;5014513;28;20417;-83
2022/05/07 08:32:56;;;;;;;1999.90;999.90;;;20.60;54.40;;;;;;5011542;28;20036;-81
2022/05/07 08:35:23;;;;;;;1999.90;999.90;;;20.50;54.50;;;;;;5023487;28;20026;-78
2022/05/07 08:37:50;;;;;;;1999.90;999.90;;;20.50;54.60;;;;;;5021489;28;20026;-86
2022/05/07 08:40:18;;;;;;;1999.90;999.90;;;20.50;54.60;;;;;;5008432;28;20063;-83
2022/05/07 08:42:44;;;;;;;1999.90;999.90;;;20.60;54.40;;;;;;5031474;28;20037;-79
2022/05/07 08:45:12;;;;;;;1999.90;999.90;;;20.70;54.30;;;;;;5012388;28;20030;-80
2022/05/07 08:47:42;;;;;;;1999.90;999.90;;;20.90;54.10;;;;;;5008094;28;20044;-81
2022/05/07 08:50:09;;;;;;;1999.90;999.90;;;20.90;54.00;;;;;;5027844;28;20045;-80
2022/05/07 08:52:39;;;;;;;1999.90;999.90;;;21.00;53.90;;;;;;5032871;28;20029;-83
2022/05/07 08:55:06;;;;;;;1999.90;999.90;;;21.00;53.80;;;;;;5029819;28;20032;-83
2022/05/07 08:57:32;;;;;;;1999.90;999.90;;;21.00;53.70;;;;;;5031496;28;20040;-82
2022/05/07 08:59:58;;;;;;;1999.90;999.90;;;21.10;53.80;;;;;;5029204;28;20481;-92
2022/05/07 09:02:24;;;;;;;1999.90;999.90;;;21.20;53.60;;;;;;4995042;28;20025;-85
2022/05/07 09:04:57;;;;;;;1999.90;999.90;;;21.40;53.40;;;;;;5028288;28;20045;-82
2022/05/07 09:07:24;;;;;;;1999.90;999.90;;;21.70;53.10;;;;;;5025198;28;20501;-82
2022/05/07 09:09:53;;;;;;;1999.90;999.90;;;21.70;53.00;;;;;;5032034;28;20495;-82
2022/05/07 09:12:28;;;;;;;1999.90;999.90;;;21.70;52.70;;;;;;4999297;28;20033;-82
2022/05/07 09:15:00;;;;;;;1999.90;999.90;;;21.70;52.80;;;;;;5031520;28;20029;-82
2022/05/07 09:17:26;;;;;;;1999.90;999.90;;;21.60;52.90;;;;;;5028659;28;20052;-83
2022/05/07 09:19:52;;;;;;;1999.90;999.90;;;21.60;53.00;;;;;;5026265;28;20040;-81
2022/05/07 09:22:19;;;;;;;1999.90;999.90;;;21.60;53.00;;;;;;5026251;28;20029;-80
2022/05/07 09:24:55;;;;;;;1999.90;999.90;;;21.60;52.90;;;;;;5018489;28;20030;-83
2022/05/07 09:27:22;;;;;;;1999.90;999.90;;;21.50;53.00;;;;;;5020157;28;20025;-80
2022/05/07 09:30:02;;;;;;;1999.90;999.90;;;21.50;53.10;;;;;;5020701;28;20041;-79
2022/05/07 09:32:36;;;;;;;1999.90;999.90;;;21.50;52.90;;;;;;5010032;28;20034;-80
2022/05/07 09:37:58;;;;;;;1999.90;999.90;;;21.60;52.80;;;;;;5013476;28;20490;-80
2022/05/07 09:40:24;;;;;;;1999.90;999.90;;;21.70;52.60;;;;;;5010958;28;20527;-79
2022/05/07 09:42:50;;;;;;;1999.90;999.90;;;21.80;52.40;;;;;;5026235;28;20466;-79
2022/05/07 09:45:17;;;;;;;1999.90;999.90;;;21.70;52.50;;;;;;5013390;28;20044;-78
2022/05/07 09:47:43;;;;;;;1999.90;999.90;;;21.60;52.70;;;;;;5012209;28;20033;-79
2022/05/07 09:50:43;;;;;;;1999.90;999.90;;;21.60;52.60;;;;;;5010457;28;20471;-84
2022/05/07 09:58:45;;;;;;;1999.90;999.90;;;21.80;52.50;;;;;;5025152;28;20018;-83
2022/05/07 10:01:31;;;;;;;1999.90;999.90;;;21.70;52.30;;;;;;5022668;28;20491;-83
2022/05/07 10:04:25;;;;;;;1999.90;999.90;;;21.60;52.50;;;;;;5024508;28;20033;-82
2022/05/07 10:07:14;;;;;;;1999.90;999.90;;;21.70;52.60;;;;;;5029560;28;20045;-79
2022/05/07 10:10:11;;;;;;;1999.90;999.90;;;21.70;52.50;;;;;;5025617;28;20044;-76
2022/05/07 10:12:38;;;;;;;1999.90;999.90;;;21.80;52.40;;;;;;5029297;28;20029;-79
2022/05/07 10:15:15;;;;;;;1999.90;999.90;;;21.90;52.30;;;;;;5006130;28;20037;-82
2022/05/07 10:17:43;;;;;;;1999.90;999.90;;;21.90;52.30;;;;;;5001331;28;20045;-79
2022/05/07 10:20:11;;;;;;;1999.90;999.90;;;21.70;52.30;;;;;;5028164;28;20049;-79
2022/05/07 10:22:38;;;;;;;1999.90;999.90;;;21.60;52.50;;;;;;5028497;28;20024;-79
2022/05/07 10:25:11;;;;;;;1999.90;999.90;;;21.50;52.70;;;;;;5012368;28;20034;-79
2022/05/07 10:27:38;;;;;;;1999.90;999.90;;;21.50;52.80;;;;;;5027883;28;20394;-78
2022/05/07 10:30:07;;;;;;;1999.90;999.90;;;21.60;52.50;;;;;;5011302;28;20026;-82
2022/05/07 10:32:56;;;;;;;1999.90;999.90;;;21.70;52.40;;;;;;5024040;28;20056;-82
2022/05/07 10:35:54;;;;;;;1999.90;999.90;;;21.70;52.40;;;;;;5029909;28;20095;-79
2022/05/07 10:38:23;;;;;;;1999.90;999.90;;;21.80;52.40;;;;;;5027933;28;20025;-79
2022/05/07 10:41:11;;;;;;;1999.90;999.90;;;21.80;52.20;;;;;;5027945;28;20042;-79
2022/05/07 10:43:42;;;;;;;1999.90;999.90;;;21.70;52.20;;;;;;5030847;28;20033;-79
2022/05/07 10:46:16;;;;;;;1999.90;999.90;;;21.80;52.20;;;;;;5024215;28;20029;-79
2022/05/07 10:48:50;;;;;;;1999.90;999.90;;;22.00;52.10;;;;;;5027884;28;20478;-79
2022/05/07 10:51:30;;;;;;;1999.90;999.90;;;22.20;51.80;;;;;;5030690;28;20482;-79
2022/05/07 10:53:59;;;;;;;1999.90;999.90;;;22.20;51.60;;;;;;5030077;28;20042;-79
2022/05/07 10:56:25;;;;;;;1999.90;999.90;;;22.30;51.60;;;;;;5029130;28;20017;-79
2022/05/07 10:58:52;;;;;;;1999.90;999.90;;;22.50;51.50;;;;;;5027837;28;20398;-80
2022/05/07 11:01:19;;;;;;;1999.90;999.90;;;22.70;51.10;;;;;;5037131;28;20041;-79
2022/05/07 11:03:45;;;;;;;1999.90;999.90;;;22.70;50.90;;;;;;5027258;28;20026;-79
2022/05/07 11:06:12;;;;;;;1999.90;999.90;;;22.70;51.00;;;;;;5013265;28;20037;-79
2022/05/07 11:08:52;;;;;;;1999.90;999.90;;;22.80;50.80;;;;;;5009965;28;20398;-79
2022/05/07 11:11:18;;;;;;;1999.90;999.90;;;22.80;50.80;;;;;;5027921;28;20390;-79
2022/05/07 11:13:45;;;;;;;1999.90;999.90;;;22.90;50.70;;;;;;5027927;28;20037;-79
2022/05/07 11:16:12;;;;;;;1999.90;999.90;;;22.90;50.50;;;;;;5026823;28;20057;-79
2022/05/07 11:18:41;;;;;;;1999.90;999.90;;;22.90;50.50;;;;;;5010383;28;20033;-79
2022/05/07 11:21:08;;;;;;;1999.90;999.90;;;22.80;50.30;;;;;;5029555;28;20080;-79
2022/05/07 11:23:36;;;;;;;1999.90;999.90;;;22.80;50.30;;;;;;5027346;28;20029;-79
2022/05/07 11:26:16;;;;;;;1999.90;999.90;;;22.70;50.40;;;;;;5006383;28;20056;-79
2022/05/07 11:28:43;;;;;;;1999.90;999.90;;;22.70;50.40;;;;;;5010188;28;20041;-79
2022/05/07 11:31:11;;;;;;;1999.90;999.90;;;22.80;50.20;;;;;;5024476;28;20037;-79
2022/05/07 11:33:38;;;;;;;1999.90;999.90;;;22.90;50.20;;;;;;5010242;28;20044;-79
2022/05/07 11:36:08;;;;;;;1999.90;999.90;;;23.00;50.10;;;;;;5027210;28;20030;-79
2022/05/07 11:38:34;;;;;;;1999.90;999.90;;;23.10;49.90;;;;;;5023815;28;20029;-79
2022/05/07 11:41:16;;;;;;;1999.90;999.90;;;23.20;49.70;;;;;;5026222;28;20049;-79
2022/05/07 11:46:34;;;;;;;1999.90;999.90;;;23.10;49.60;;;;;;5023717;28;20021;-79
2022/05/07 11:49:06;;;;;;;1999.90;999.90;;;23.00;49.70;;;;;;5026449;28;20037;-79
2022/05/07 11:51:32;;;;;;;1999.90;999.90;;;23.00;49.80;;;;;;5025990;28;20030;-79
2022/05/07 11:54:08;;;;;;;1999.90;999.90;;;23.00;49.80;;;;;;5026058;28;20030;-79
2022/05/07 11:56:45;;;;;;;1999.90;999.90;;;23.10;49.80;;;;;;5028371;28;20382;-80
2022/05/07 11:59:11;;;;;;;1999.90;999.90;;;23.10;49.50;;;;;;5018337;28;20028;-79
2022/05/07 12:01:37;;;;;;;1999.90;999.90;;;23.00;49.50;;;;;;5027442;28;20041;-79
2022/05/07 12:04:08;;;;;;;1999.90;999.90;;;23.10;49.60;;;;;;5009544;28;20030;-79
2022/05/07 12:06:34;;;;;;;1999.90;999.90;;;23.20;49.50;;;;;;5029627;28;20048;-79
2022/05/07 12:09:10;;;;;;;1999.90;999.90;;;23.40;49.30;;;;;;5008320;28;20033;-79
2022/05/07 12:11:36;;;;;;;1999.90;999.90;;;23.40;49.10;;;;;;5024037;28;20041;-79
2022/05/07 12:14:02;;;;;;;1999.90;999.90;;;23.30;49.00;;;;;;5035239;28;20037;-79
2022/05/07 12:19:13;;;;;;;1999.90;999.90;;;23.00;49.30;;;;;;5041386;28;20037;-79
2022/05/07 12:29:53;;;;;;;1999.90;999.90;;;23.30;48.90;;;;;;5026822;28;20029;-79
2022/05/07 12:32:20;;;;;;;1999.90;999.90;;;23.40;48.80;;;;;;5026405;28;20037;-79
2022/05/07 12:34:46;;;;;;;1999.90;999.90;;;23.40;48.70;;;;;;5026782;28;20040;-79
2022/05/07 12:37:13;;;;;;;1999.90;999.90;;;23.40;48.60;;;;;;5019571;28;20125;-79
2022/05/07 12:39:39;;;;;;;1999.90;999.90;;;23.50;48.50;;;;;;5025856;28;20052;-79
2022/05/07 12:42:09;;;;;;;1999.90;999.90;;;23.60;48.40;;;;;;5010867;28;20021;-79
2022/05/07 12:44:35;;;;;;;1999.90;999.90;;;23.60;48.30;;;;;;5025195;28;20021;-79
2022/05/07 12:47:03;;;;;;;1999.90;999.90;;;23.60;48.30;;;;;;5013005;28;20037;-79
2022/05/07 12:49:29;;;;;;;1999.90;999.90;;;23.50;48.30;;;;;;5026816;28;20037;-79